createdAt,value
2022-08-18T00:02:05.418Z,101179.16
2022-08-18T00:04:52.822Z,101179.16
2022-08-18T00:07:41.980Z,101173.88
2022-08-18T00:10:32.845Z,101184.19
2022-08-18T00:13:18.009Z,101172.75
2022-08-18T00:16:03.273Z,101177.09
2022-08-18T00:18:49.790Z,101180.84
2022-08-18T00:21:34.750Z,101180.97
2022-08-18T00:24:20.081Z,101180.44
2022-08-18T00:27:06.835Z,101195.38
2022-08-18T00:29:54.551Z,101201.50
2022-08-18T00:32:49.602Z,101199.53
2022-08-18T00:35:37.956Z,101197.56
2022-08-18T00:38:24.819Z,101205.25
2022-08-18T00:41:10.679Z,101197.03
2022-08-18T00:43:58.431Z,101190.59
2022-08-18T00:46:43.658Z,101199.25
2022-08-18T00:49:28.865Z,101172.50
2022-08-18T00:52:16.617Z,101187.41
2022-08-18T00:55:04.083Z,101187.00
2022-08-18T00:57:52.221Z,101175.81
2022-08-18T01:00:38.144Z,101181.25
2022-08-18T01:03:25.296Z,101185.00
2022-08-18T01:06:22.354Z,101178.22
2022-08-18T01:09:08.722Z,101164.38
2022-08-18T01:11:53.685Z,101156.53
2022-08-18T01:14:38.917Z,101157.66
2022-08-18T01:17:44.619Z,101153.47
2022-08-18T01:21:20.775Z,101146.47
2022-08-18T01:24:12.705Z,101150.91
2022-08-18T01:26:57.731Z,101153.41
2022-08-18T01:29:43.694Z,101159.28
2022-08-18T01:32:28.695Z,101154.63
2022-08-18T01:35:17.457Z,101156.03
2022-08-18T01:38:02.578Z,101156.72
2022-08-18T01:41:22.453Z,101153.78
2022-08-18T01:43:52.613Z,101142.06
2022-08-18T01:46:41.525Z,101157.13
2022-08-18T01:49:28.817Z,101158.78
2022-08-18T01:52:21.816Z,101161.16
2022-08-18T01:55:09.944Z,101155.44
2022-08-18T01:57:55.644Z,101166.47
2022-08-18T02:00:42.102Z,101163.81
2022-08-18T02:03:30.879Z,101170.94
2022-08-18T02:06:18.577Z,101166.47
2022-08-18T02:09:23.675Z,101153.09
2022-08-18T02:12:10.030Z,101156.16
2022-08-18T02:14:55.189Z,101154.88
2022-08-18T02:17:46.115Z,101163.66
2022-08-18T02:20:31.856Z,101171.63
2022-08-18T02:23:17.765Z,101157.41
2022-08-18T02:26:08.681Z,101166.63
2022-08-18T02:28:54.129Z,101167.28
2022-08-18T02:31:39.232Z,101158.78
2022-08-18T02:34:25.487Z,101158.50
2022-08-18T02:37:15.198Z,101153.63
2022-08-18T02:40:01.331Z,101157.41
2022-08-18T02:42:47.172Z,101155.34
2022-08-18T02:45:32.761Z,101158.41
2022-08-18T02:48:24.286Z,101151.63
2022-08-18T02:51:15.545Z,101151.63
2022-08-18T02:54:00.630Z,101145.09
2022-08-18T02:56:46.962Z,101172.13
2022-08-18T02:59:32.184Z,101179.09
2022-08-18T03:02:18.785Z,101174.50
2022-08-18T03:05:05.826Z,101170.72
2022-08-18T03:07:51.292Z,101179.09
2022-08-18T03:10:36.930Z,101184.38
2022-08-18T03:13:21.957Z,101178.50
2022-08-18T03:16:07.434Z,101186.22
2022-08-18T03:18:53.576Z,101183.41
2022-08-18T03:21:38.893Z,101184.38
2022-08-18T03:24:26.461Z,101184.91
2022-08-18T03:27:12.761Z,101187.56
2022-08-18T03:29:58.776Z,101183.25
2022-08-18T03:32:45.907Z,101184.22
2022-08-18T03:35:31.329Z,101186.88
2022-08-18T03:38:16.591Z,101185.22
2022-08-18T03:41:02.013Z,101173.78
2022-08-18T03:43:50.951Z,101177.97
2022-08-18T03:46:36.918Z,101188.00
2022-08-18T03:49:22.363Z,101184.38
2022-08-18T03:52:09.689Z,101180.91
2022-08-18T03:54:54.884Z,101176.56
2022-08-18T03:57:40.183Z,101180.22
2022-08-18T04:00:27.361Z,101181.88
2022-08-18T04:03:12.361Z,101175.84
2022-08-18T04:05:57.717Z,101177.28
2022-08-18T04:08:44.236Z,101174.63
2022-08-18T04:11:35.795Z,101157.06
2022-08-18T04:14:25.124Z,101170.44
2022-08-18T04:17:10.623Z,101157.06
2022-08-18T04:19:56.917Z,101157.66
2022-08-18T04:22:42.750Z,101175.22
2022-08-18T04:25:32.539Z,101178.47
2022-08-18T04:28:18.291Z,101172.44
2022-08-18T04:31:10.298Z,101178.63
2022-08-18T04:33:58.332Z,101174.44
2022-08-18T04:36:44.096Z,101163.94
2022-08-18T04:39:30.200Z,101156.56
2022-08-18T04:42:15.990Z,101176.91
2022-08-18T04:45:01.389Z,101165.47
2022-08-18T04:47:46.651Z,101180.00
2022-08-18T04:50:32.025Z,101183.50
2022-08-18T04:53:35.889Z,101179.03
2022-08-18T04:56:27.118Z,101174.69
2022-08-18T04:59:13.853Z,101177.34
2022-08-18T05:02:01.700Z,101187.13
2022-08-18T05:04:47.210Z,101188.94
2022-08-18T05:07:32.477Z,101183.91
2022-08-18T05:10:17.840Z,101197.44
2022-08-18T05:13:03.335Z,101178.59
2022-08-18T05:16:18.043Z,101174.13
2022-08-18T05:19:07.117Z,101177.75
2022-08-18T05:21:57.655Z,101176.94
2022-08-18T05:24:46.293Z,101176.50
2022-08-18T05:27:36.870Z,101172.72
2022-08-18T05:30:22.160Z,101178.56
2022-08-18T05:33:10.779Z,101169.38
2022-08-18T05:36:05.481Z,101160.41
2022-08-18T05:39:04.691Z,101168.66
2022-08-18T05:41:52.713Z,101160.41
2022-08-18T05:44:43.003Z,101151.75
2022-08-18T05:47:32.818Z,101162.78
2022-08-18T05:50:20.789Z,101161.13
2022-08-18T05:53:44.202Z,101169.78
2022-08-18T05:56:49.043Z,101163.19
2022-08-18T05:59:39.421Z,101169.59
2022-08-18T06:02:32.376Z,101181.16
2022-08-18T06:05:52.803Z,101178.50
2022-08-18T06:08:45.520Z,101183.81
2022-08-18T06:11:30.521Z,101185.50
2022-08-18T06:14:16.284Z,101180.59
2022-08-18T06:17:08.585Z,101172.78
2022-08-18T06:20:10.264Z,101174.59
2022-08-18T06:23:18.492Z,101184.78
2022-08-18T06:26:34.307Z,101173.63
2022-08-18T06:29:24.864Z,101178.47
2022-08-18T06:32:34.469Z,101186.53
2022-08-18T06:35:25.453Z,101172.97
2022-08-18T06:38:38.364Z,101171.66
2022-08-18T06:41:41.506Z,101164.09
2022-08-18T06:44:49.109Z,101172.75
2022-08-18T06:47:44.601Z,101165.41
2022-08-18T06:50:43.545Z,101167.16
2022-08-18T06:53:52.069Z,101171.19
2022-08-18T06:56:40.113Z,101174.78
2022-08-18T06:59:29.666Z,101163.75
2022-08-18T07:02:26.633Z,101163.28
2022-08-18T07:05:14.651Z,101160.63
2022-08-18T07:08:05.746Z,101158.72
2022-08-18T07:10:52.573Z,101157.19
2022-08-18T07:13:45.289Z,101168.75
2022-08-18T07:17:00.743Z,101173.47
2022-08-18T07:19:38.854Z,101177.63
2022-08-18T07:22:38.939Z,101170.88
2022-08-18T07:25:45.253Z,101172.09
2022-08-18T07:28:38.072Z,101179.72
2022-08-18T07:31:46.553Z,101189.06
2022-08-18T07:34:42.751Z,101192.63
2022-08-18T07:37:36.932Z,101179.34
2022-08-18T07:40:32.792Z,101190.44
2022-08-18T07:43:27.585Z,101188.34
2022-08-18T07:46:23.383Z,101193.28
2022-08-18T07:49:08.369Z,101187.97
2022-08-18T07:52:01.374Z,101201.94
2022-08-18T07:54:57.545Z,101198.75
2022-08-18T07:57:47.823Z,101203.69
2022-08-18T08:00:58.860Z,101222.03
2022-08-18T08:03:59.242Z,101217.41
2022-08-18T08:07:26.243Z,101220.16
2022-08-18T08:10:11.953Z,101230.00
2022-08-18T08:13:51.351Z,101220.09
2022-08-18T08:16:40.626Z,101213.53
2022-08-18T08:20:00.903Z,101227.50
2022-08-18T08:23:05.805Z,101229.16
2022-08-18T08:26:24.694Z,101232.13
2022-08-18T08:29:12.780Z,101232.72
2022-08-18T08:32:06.848Z,101233.78
2022-08-18T08:35:03.496Z,101223.28
2022-08-18T08:38:12.327Z,101227.16
2022-08-18T08:41:12.991Z,101225.78
2022-08-18T08:44:17.645Z,101230.28
2022-08-18T08:47:10.702Z,101224.69
2022-08-18T08:50:02.757Z,101213.38
2022-08-18T08:52:57.200Z,101227.03
2022-08-18T08:55:48.527Z,101213.75
2022-08-18T08:58:59.020Z,101227.25
2022-08-18T09:01:50.137Z,101210.50
2022-08-18T09:04:35.554Z,101216.03
2022-08-18T09:07:26.785Z,101209.91
2022-08-18T09:10:24.280Z,101221.91
2022-08-18T09:13:29.339Z,101209.91
2022-08-18T09:16:36.544Z,101219.38
2022-08-18T09:19:47.757Z,101218.59
2022-08-18T09:22:54.485Z,101210.06
2022-08-18T09:25:41.762Z,101224.06
2022-08-18T09:28:29.709Z,101222.91
2022-08-18T09:31:19.390Z,101215.22
2022-08-18T09:34:21.762Z,101217.88
2022-08-18T09:37:21.526Z,101220.41
2022-08-18T09:40:59.296Z,101226.59
2022-08-18T09:44:18.033Z,101225.00
2022-08-18T09:47:13.291Z,101212.63
2022-08-18T09:50:04.548Z,101205.63
2022-08-18T09:52:50.002Z,101210.91
2022-08-18T09:55:35.877Z,101212.94
2022-08-18T09:58:49.888Z,101206.25
2022-08-18T10:01:39.884Z,101198.72
2022-08-18T10:04:33.096Z,101202.56
2022-08-18T10:07:22.033Z,101193.91
2022-08-18T10:11:01.300Z,101191.72
2022-08-18T10:13:58.954Z,101181.88
2022-08-18T10:17:23.299Z,101181.50
2022-08-18T10:20:09.739Z,101179.16
2022-08-18T10:23:49.533Z,101184.13
2022-08-18T10:26:54.049Z,101177.50
2022-08-18T10:29:51.305Z,101170.53
2022-08-18T10:35:58.929Z,101162.28
2022-08-18T10:38:49.683Z,101171.75
2022-08-18T10:41:41.475Z,101173.69
2022-08-18T10:44:29.634Z,101173.91
2022-08-18T10:50:53.262Z,101171.28
2022-08-18T10:53:50.643Z,101166.81
2022-08-18T10:56:52.328Z,101168.19
2022-08-18T11:00:04.972Z,101159.94
2022-08-18T11:06:28.338Z,101177.03
2022-08-18T11:09:13.793Z,101160.13
2022-08-18T11:12:01.817Z,101151.53
2022-08-18T11:14:55.736Z,101173.38
2022-08-18T11:18:05.603Z,101171.19
2022-08-18T11:21:43.443Z,101159.38
2022-08-18T11:24:32.020Z,101150.44
2022-08-18T11:27:23.885Z,101153.09
2022-08-18T11:30:12.346Z,101148.22
2022-08-18T11:33:01.149Z,101146.28
2022-08-18T11:35:59.256Z,101153.03
2022-08-18T11:38:56.582Z,101147.38
2022-08-18T11:41:48.704Z,101126.63
2022-08-18T11:44:38.232Z,101139.25
2022-08-18T11:47:27.871Z,101122.16
2022-08-18T11:50:27.505Z,101127.91
2022-08-18T11:53:35.248Z,101124.13
2022-08-18T11:56:35.687Z,101130.66
2022-08-18T11:59:52.581Z,101128.88
2022-08-18T12:02:31.338Z,101127.78
2022-08-18T12:05:18.030Z,101124.09
2022-08-18T12:08:07.672Z,101120.78
2022-08-18T12:11:26.521Z,101126.88
2022-08-18T12:17:25.926Z,101100.84
2022-08-18T12:20:15.611Z,101112.56
2022-08-18T12:23:01.572Z,101101.13
2022-08-18T12:25:46.858Z,101096.03
2022-08-18T12:28:37.154Z,101091.97
2022-08-18T12:31:28.894Z,101087.69
2022-08-18T12:34:27.455Z,101076.19
2022-08-18T12:37:54.451Z,101074.97
2022-08-18T12:40:22.783Z,101069.53
2022-08-18T12:43:08.288Z,101075.88
2022-08-18T12:45:53.609Z,101075.50
2022-08-18T12:48:39.601Z,101083.00
2022-08-18T12:51:30.647Z,101093.56
2022-08-18T12:54:16.072Z,101085.88
2022-08-18T12:57:06.155Z,101082.16
2022-08-18T12:59:54.796Z,101091.44
2022-08-18T13:02:42.169Z,101085.25
2022-08-18T13:05:30.058Z,101085.66
2022-08-18T13:08:27.623Z,101081.25
2022-08-18T13:11:23.417Z,101081.56
2022-08-18T13:14:09.334Z,101089.75
2022-08-18T13:16:55.296Z,101081.28
2022-08-18T13:19:40.555Z,101085.25
2022-08-18T13:22:32.406Z,101080.25
2022-08-18T13:25:32.542Z,101075.50
2022-08-18T13:28:17.922Z,101077.81
2022-08-18T13:31:05.332Z,101080.50
2022-08-18T13:33:57.914Z,101079.25
2022-08-18T13:36:46.209Z,101066.81
2022-08-18T13:39:34.268Z,101062.00
2022-08-18T13:42:26.468Z,101079.22
2022-08-18T13:45:22.697Z,101077.69
2022-08-18T13:48:11.342Z,101086.91
2022-08-18T13:51:01.095Z,101095.94
2022-08-18T13:53:58.901Z,101090.84
2022-08-18T13:56:52.332Z,101082.94
2022-08-18T13:59:38.307Z,101094.16
2022-08-18T14:02:31.596Z,101087.88
2022-08-18T14:05:17.638Z,101071.69
2022-08-18T14:08:03.723Z,101071.47
2022-08-18T14:10:55.850Z,101078.50
2022-08-18T14:13:43.924Z,101081.91
2022-08-18T14:16:29.697Z,101099.28
2022-08-18T14:19:34.538Z,101072.31
2022-08-18T14:22:38.263Z,101081.41
2022-08-18T14:25:43.099Z,101091.06
2022-08-18T14:28:29.448Z,101086.00
2022-08-18T14:31:14.756Z,101077.63
2022-08-18T14:34:06.412Z,101075.50
2022-08-18T14:36:51.532Z,101062.91
2022-08-18T14:39:38.454Z,101065.63
2022-08-18T14:42:41.102Z,101076.47
2022-08-18T14:45:34.208Z,101065.75
2022-08-18T14:48:22.921Z,101076.19
2022-08-18T14:51:09.870Z,101071.63
2022-08-18T14:53:55.965Z,101064.50
2022-08-18T14:56:41.198Z,101069.94
2022-08-18T14:59:28.504Z,101070.81
2022-08-18T15:02:13.686Z,101068.72
2022-08-18T15:04:58.905Z,101067.09
2022-08-18T15:07:45.917Z,101066.28
2022-08-18T15:10:33.088Z,101060.56
2022-08-18T15:13:18.306Z,101059.03
2022-08-18T15:16:04.144Z,101070.09
2022-08-18T15:18:49.761Z,101067.00
2022-08-18T15:21:54.558Z,101064.56
2022-08-18T15:25:00.446Z,101052.31
2022-08-18T15:27:45.832Z,101055.03
2022-08-18T15:30:32.098Z,101055.88
2022-08-18T15:33:18.523Z,101060.63
2022-08-18T15:36:10.224Z,101063.69
2022-08-18T15:38:56.677Z,101067.00
2022-08-18T15:44:34.642Z,101054.50
2022-08-18T15:47:20.914Z,101069.06
2022-08-18T15:50:21.632Z,101071.31
2022-08-18T15:53:12.220Z,101070.41
2022-08-18T15:55:58.710Z,101062.06
2022-08-18T15:58:50.129Z,101066.38
2022-08-18T16:01:40.557Z,101065.09
2022-08-18T16:04:27.586Z,101068.75
2022-08-18T16:07:14.809Z,101057.09
2022-08-18T16:10:04.790Z,101056.16
2022-08-18T16:12:51.089Z,101046.13
2022-08-18T16:15:42.053Z,101035.09
2022-08-18T16:18:29.466Z,101049.72
2022-08-18T16:21:17.762Z,101045.56
2022-08-18T16:24:03.163Z,101047.19
2022-08-18T16:26:48.066Z,101056.78
2022-08-18T16:29:33.519Z,101037.59
2022-08-18T16:32:18.617Z,101043.50
2022-08-18T16:35:04.927Z,101044.47
2022-08-18T16:37:50.269Z,101039.81
2022-08-18T16:40:36.647Z,101036.84
2022-08-18T16:43:21.888Z,101040.69
2022-08-18T16:46:12.463Z,101036.34
2022-08-18T16:48:58.437Z,101043.19
2022-08-18T16:51:45.487Z,101030.69
2022-08-18T16:54:31.190Z,101042.34
2022-08-18T16:57:53.327Z,101028.56
2022-08-18T17:00:59.135Z,101036.06
2022-08-18T17:04:03.427Z,101039.66
2022-08-18T17:06:49.683Z,101043.63
2022-08-18T17:09:35.573Z,101038.50
2022-08-18T17:12:20.881Z,101043.34
2022-08-18T17:15:06.519Z,101039.38
2022-08-18T17:17:51.630Z,101037.91
2022-08-18T17:20:36.961Z,101033.25
2022-08-18T17:23:22.701Z,101021.66
2022-08-18T17:26:33.233Z,101035.59
2022-08-18T17:29:22.983Z,101036.50
2022-08-18T17:32:24.612Z,101014.19
2022-08-18T17:35:35.057Z,101027.81
2022-08-18T17:38:51.071Z,101033.25
2022-08-18T17:41:56.385Z,101027.34
2022-08-18T17:44:46.276Z,101036.56
2022-08-18T17:47:50.577Z,101039.56
2022-08-18T17:50:58.778Z,101028.34
2022-08-18T17:53:45.324Z,101020.47
2022-08-18T17:56:42.332Z,101007.91
2022-08-18T17:59:52.030Z,101003.53
2022-08-18T18:02:38.180Z,100999.59
2022-08-18T18:05:23.152Z,101003.97
2022-08-18T18:08:09.721Z,101002.69
2022-08-18T18:11:09.846Z,101013.72
2022-08-18T18:13:55.384Z,101016.28
2022-08-18T18:16:40.537Z,101011.97
2022-08-18T18:19:29.899Z,101025.34
2022-08-18T18:22:24.103Z,101029.84
2022-08-18T18:25:11.162Z,101031.75
2022-08-18T18:27:56.463Z,101031.59
2022-08-18T18:30:43.766Z,101024.63
2022-08-18T18:33:30.498Z,101027.88
2022-08-18T18:36:34.980Z,101035.72
2022-08-18T18:39:37.987Z,101030.88
2022-08-18T18:42:30.131Z,101034.41
2022-08-18T18:45:22.881Z,101026.44
2022-08-18T18:48:45.059Z,101036.78
2022-08-18T18:52:13.563Z,101034.81
2022-08-18T18:55:07.328Z,101030.34
2022-08-18T18:58:29.752Z,101039.88
2022-08-18T19:01:43.892Z,101030.28
2022-08-18T19:04:33.825Z,101039.44
2022-08-18T19:07:25.375Z,101047.47
2022-08-18T19:10:18.539Z,101041.66
2022-08-18T19:13:32.720Z,101039.63
2022-08-18T19:16:30.803Z,101034.00
2022-08-18T19:19:36.109Z,101054.47
2022-08-18T19:22:33.226Z,101052.81
2022-08-18T19:25:22.897Z,101050.47
2022-08-18T19:28:28.362Z,101059.81
2022-08-18T19:31:34.803Z,101055.16
2022-08-18T19:34:30.096Z,101054.31
2022-08-18T19:37:18.329Z,101044.16
2022-08-18T19:40:21.261Z,101038.81
2022-08-18T19:43:12.437Z,101062.78
2022-08-18T19:46:16.294Z,101071.09
2022-08-18T19:49:16.622Z,101063.09
2022-08-18T19:52:46.233Z,101065.28
2022-08-18T19:55:53.928Z,101075.88
2022-08-18T19:59:15.530Z,101078.47
2022-08-18T20:02:41.861Z,101076.31
2022-08-18T20:05:32.885Z,101083.78
2022-08-18T20:08:50.522Z,101082.09
2022-08-18T20:12:01.025Z,101087.38
2022-08-18T20:15:12.682Z,101089.50
2022-08-18T20:18:06.381Z,101089.97
2022-08-18T20:21:20.202Z,101093.00
2022-08-18T20:24:24.132Z,101092.78
2022-08-18T20:27:34.994Z,101072.66
2022-08-18T20:30:29.911Z,101081.63
2022-08-18T20:33:24.181Z,101089.44
2022-08-18T20:36:28.655Z,101084.31
2022-08-18T20:39:32.855Z,101074.94
2022-08-18T20:42:21.043Z,101075.69
2022-08-18T20:45:13.316Z,101087.31
2022-08-18T20:48:16.278Z,101083.44
2022-08-18T20:51:15.038Z,101084.72
2022-08-18T20:54:18.086Z,101093.28
2022-08-18T20:57:05.953Z,101086.91
2022-08-18T21:00:03.817Z,101084.94
2022-08-18T21:02:55.238Z,101071.59
2022-08-18T21:05:44.272Z,101087.22
2022-08-18T21:08:32.942Z,101085.19
2022-08-18T21:11:30.863Z,101070.66
2022-08-18T21:14:25.778Z,101075.66
2022-08-18T21:17:15.379Z,101083.75
2022-08-18T21:20:04.540Z,101084.06
2022-08-18T21:22:51.075Z,101079.75
2022-08-18T21:25:40.944Z,101072.69
2022-08-18T21:28:31.393Z,101085.53
2022-08-18T21:31:42.510Z,101079.84
2022-08-18T21:34:41.806Z,101069.44
2022-08-18T21:37:32.754Z,101076.59
2022-08-18T21:40:18.622Z,101052.75
2022-08-18T21:43:03.733Z,101069.06
2022-08-18T21:45:58.965Z,101069.19
2022-08-18T21:48:50.808Z,101069.50
2022-08-18T21:51:48.584Z,101059.25
2022-08-18T21:54:34.377Z,101075.03
2022-08-18T21:57:26.593Z,101074.88
2022-08-18T22:00:23.848Z,101074.88
2022-08-18T22:03:26.007Z,101076.97
2022-08-18T22:06:22.200Z,101060.28
2022-08-18T22:09:33.415Z,101071.97
2022-08-18T22:12:52.126Z,101052.31
2022-08-18T22:15:46.155Z,101078.88
2022-08-18T22:18:39.602Z,101071.69
2022-08-18T22:21:32.510Z,101077.81
2022-08-18T22:24:21.366Z,101070.06
2022-08-18T22:27:20.014Z,101080.38
2022-08-18T22:30:05.441Z,101078.69
2022-08-18T22:32:50.761Z,101080.94
2022-08-18T22:35:35.876Z,101080.69
2022-08-18T22:38:21.214Z,101080.41
2022-08-18T22:41:06.372Z,101090.81
2022-08-18T22:43:55.106Z,101080.78
2022-08-18T22:46:40.742Z,101079.47
2022-08-18T22:49:26.306Z,101072.50
2022-08-18T22:52:15.421Z,101078.28
2022-08-18T22:55:02.763Z,101087.59
2022-08-18T22:57:55.900Z,101080.78
2022-08-18T23:00:42.660Z,101085.25
2022-08-18T23:03:28.447Z,101080.50
2022-08-18T23:06:14.826Z,101082.97
2022-08-18T23:09:02.844Z,101074.19
2022-08-18T23:11:47.779Z,101086.06
2022-08-18T23:14:33.778Z,101074.31
2022-08-18T23:17:21.411Z,101081.56
2022-08-18T23:20:11.398Z,101086.44
2022-08-18T23:22:56.961Z,101082.78
2022-08-18T23:25:42.761Z,101061.16
2022-08-18T23:28:28.142Z,101071.19
2022-08-18T23:31:13.806Z,101059.50
2022-08-18T23:34:00.496Z,101068.53
2022-08-18T23:36:52.029Z,101080.00
2022-08-18T23:39:38.885Z,101070.34
2022-08-18T23:42:23.890Z,101076.41
2022-08-18T23:45:10.131Z,101074.97
2022-08-18T23:47:57.738Z,101069.97
2022-08-18T23:50:44.934Z,101075.59
2022-08-18T23:53:31.089Z,101081.06
2022-08-18T23:56:15.972Z,101077.16
2022-08-18T23:59:02.342Z,101091.75
